createdAt,value
2022-10-20T00:03:30.916Z,90.50
2022-10-20T00:07:12.825Z,90.70
2022-10-20T00:10:56.077Z,90.90
2022-10-20T00:14:38.617Z,90.90
2022-10-20T00:18:20.898Z,90.90
2022-10-20T00:22:02.709Z,90.90
2022-10-20T00:25:44.514Z,90.90
2022-10-20T00:29:26.337Z,91.00
2022-10-20T00:33:08.228Z,90.90
2022-10-20T00:36:51.373Z,90.90
2022-10-20T00:40:33.520Z,90.80
2022-10-20T00:44:48.903Z,90.90
2022-10-20T00:48:32.134Z,90.60
2022-10-20T00:52:18.621Z,91.00
2022-10-20T00:56:01.399Z,91.10
2022-10-20T00:59:43.846Z,91.10
2022-10-20T01:03:34.978Z,91.20
2022-10-20T01:07:16.846Z,91.10
2022-10-20T01:11:10.297Z,91.20
2022-10-20T01:14:54.856Z,91.10
2022-10-20T01:19:30.572Z,91.10
2022-10-20T01:23:18.151Z,90.60
2022-10-20T01:27:11.883Z,90.90
2022-10-20T01:31:02.008Z,90.90
2022-10-20T01:34:52.934Z,90.90
2022-10-20T01:38:50.799Z,91.00
2022-10-20T01:42:32.723Z,90.70
2022-10-20T01:46:17.673Z,90.80
2022-10-20T01:49:59.899Z,90.80
2022-10-20T01:53:41.722Z,90.80
2022-10-20T01:57:37.597Z,90.80
2022-10-20T02:01:34.512Z,90.60
2022-10-20T02:05:46.230Z,90.50
2022-10-20T02:09:35.707Z,90.60
2022-10-20T02:13:20.041Z,90.50
2022-10-20T02:17:11.424Z,90.70
2022-10-20T02:20:57.067Z,90.80
2022-10-20T02:24:41.834Z,90.60
2022-10-20T02:28:25.643Z,90.60
2022-10-20T02:32:09.559Z,90.60
2022-10-20T02:35:56.863Z,90.60
2022-10-20T02:39:38.826Z,90.60
2022-10-20T02:43:20.683Z,90.60
2022-10-20T02:47:02.573Z,90.70
2022-10-20T02:50:44.441Z,90.70
2022-10-20T02:54:28.694Z,90.80
2022-10-20T02:58:10.838Z,90.80
2022-10-20T03:01:52.794Z,90.80
2022-10-20T03:05:39.431Z,90.80
2022-10-20T03:09:21.345Z,90.70
2022-10-20T03:13:03.682Z,90.80
2022-10-20T03:16:45.592Z,90.80
2022-10-20T03:20:27.373Z,90.80
2022-10-20T03:24:09.292Z,90.70
2022-10-20T03:27:51.327Z,90.80
2022-10-20T03:31:33.464Z,90.90
2022-10-20T03:35:15.547Z,90.90
2022-10-20T03:38:57.415Z,91.00
2022-10-20T03:42:39.362Z,90.80
2022-10-20T03:46:21.347Z,90.80
2022-10-20T03:53:47.227Z,90.90
2022-10-20T03:57:29.030Z,90.90
2022-10-20T04:01:15.434Z,91.00
2022-10-20T04:04:57.410Z,90.90
2022-10-20T04:08:39.423Z,91.00
2022-10-20T04:12:21.297Z,91.00
2022-10-20T04:16:03.407Z,91.00
2022-10-20T04:19:45.563Z,91.00
2022-10-20T04:23:27.443Z,91.10
2022-10-20T04:27:09.342Z,91.10
2022-10-20T04:30:51.197Z,91.10
2022-10-20T04:34:33.086Z,91.10
2022-10-20T04:38:14.928Z,91.10
2022-10-20T04:41:56.876Z,91.30
2022-10-20T04:45:38.692Z,91.20
2022-10-20T04:49:20.884Z,91.20
2022-10-20T04:53:02.700Z,91.30
2022-10-20T04:56:44.571Z,91.40
2022-10-20T05:00:26.520Z,91.50
2022-10-20T05:04:09.160Z,91.50
2022-10-20T05:07:50.982Z,91.60
2022-10-20T05:11:35.952Z,91.60
2022-10-20T05:15:17.827Z,91.60
2022-10-20T05:19:00.283Z,91.50
2022-10-20T05:22:42.146Z,91.60
2022-10-20T05:26:25.148Z,91.60
2022-10-20T05:30:07.518Z,91.70
2022-10-20T05:33:54.956Z,91.70
2022-10-20T05:37:36.745Z,91.60
2022-10-20T05:41:20.991Z,91.70
2022-10-20T05:45:03.130Z,91.60
2022-10-20T05:48:45.720Z,91.60
2022-10-20T05:52:27.534Z,91.60
2022-10-20T05:56:14.825Z,91.60
2022-10-20T05:59:56.651Z,91.60
2022-10-20T06:03:38.463Z,91.60
2022-10-20T06:07:20.306Z,91.50
2022-10-20T06:11:04.604Z,91.50
2022-10-20T06:14:46.438Z,91.60
2022-10-20T06:18:28.288Z,91.50
2022-10-20T06:22:10.304Z,91.50
2022-10-20T06:25:52.145Z,91.50
2022-10-20T06:29:33.985Z,91.60
2022-10-20T06:33:16.958Z,91.70
2022-10-20T06:36:58.843Z,91.80
2022-10-20T06:40:40.780Z,91.80
2022-10-20T06:44:24.186Z,91.90
2022-10-20T06:48:06.222Z,91.80
2022-10-20T06:51:48.233Z,91.70
2022-10-20T06:55:30.059Z,91.70
2022-10-20T06:59:11.875Z,91.80
2022-10-20T07:02:53.722Z,92.00
2022-10-20T07:06:40.807Z,92.00
2022-10-20T07:10:22.618Z,91.90
2022-10-20T07:14:04.955Z,91.90
2022-10-20T07:17:48.923Z,91.80
2022-10-20T07:21:35.806Z,91.80
2022-10-20T07:25:21.852Z,91.70
2022-10-20T07:29:04.518Z,91.60
2022-10-20T07:32:46.603Z,91.80
2022-10-20T07:36:34.938Z,91.90
2022-10-20T07:40:18.247Z,91.90
2022-10-20T07:44:00.407Z,92.00
2022-10-20T07:47:44.226Z,92.00
2022-10-20T07:51:31.059Z,92.10
2022-10-20T07:55:33.543Z,92.20
2022-10-20T07:59:15.097Z,92.30
2022-10-20T08:02:57.179Z,92.00
2022-10-20T08:06:39.683Z,92.00
2022-10-20T08:10:21.622Z,91.90
2022-10-20T08:14:03.558Z,91.70
2022-10-20T08:17:45.390Z,91.40
2022-10-20T08:21:27.392Z,91.30
2022-10-20T08:25:14.524Z,90.90
2022-10-20T08:28:56.384Z,91.00
2022-10-20T08:32:38.443Z,90.70
2022-10-20T08:36:21.349Z,90.60
2022-10-20T08:40:04.680Z,90.50
2022-10-20T08:43:48.399Z,90.30
2022-10-20T08:47:35.333Z,90.40
2022-10-20T08:51:23.737Z,90.50
2022-10-20T08:55:06.407Z,90.60
2022-10-20T08:58:48.278Z,90.80
2022-10-20T09:02:34.467Z,90.80
2022-10-20T09:06:17.097Z,90.80
2022-10-20T09:10:11.865Z,91.00
2022-10-20T09:13:54.211Z,90.70
2022-10-20T09:17:36.344Z,90.50
2022-10-20T09:21:21.857Z,90.80
2022-10-20T09:25:04.435Z,90.80
2022-10-20T09:29:11.938Z,90.60
2022-10-20T09:32:53.691Z,90.20
2022-10-20T09:36:38.618Z,90.20
2022-10-20T09:40:22.718Z,89.60
2022-10-20T09:44:08.910Z,89.80
2022-10-20T09:47:55.548Z,88.80
2022-10-20T09:51:37.270Z,86.80
2022-10-20T09:55:34.062Z,87.80
2022-10-20T09:59:21.730Z,87.00
2022-10-20T10:03:21.715Z,85.40
2022-10-20T10:07:05.752Z,84.30
2022-10-20T10:11:03.504Z,83.30
2022-10-20T10:15:06.348Z,83.50
2022-10-20T10:18:56.137Z,83.50
2022-10-20T10:22:39.437Z,83.20
2022-10-20T10:26:40.180Z,82.90
2022-10-20T10:30:27.742Z,83.30
2022-10-20T10:34:12.443Z,83.30
2022-10-20T10:37:55.325Z,84.30
2022-10-20T10:42:04.794Z,83.80
2022-10-20T10:46:26.171Z,83.50
2022-10-20T10:50:31.408Z,83.80
2022-10-20T10:54:49.401Z,84.50
2022-10-20T10:58:40.082Z,84.20
2022-10-20T11:02:58.805Z,85.70
2022-10-20T11:06:57.113Z,85.50
2022-10-20T11:11:01.358Z,85.00
2022-10-20T11:15:04.984Z,84.00
2022-10-20T11:19:04.686Z,83.20
2022-10-20T11:22:52.678Z,79.10
2022-10-20T11:26:38.252Z,78.40
2022-10-20T11:30:22.185Z,76.80
2022-10-20T11:34:43.043Z,77.60
2022-10-20T11:38:41.787Z,78.10
2022-10-20T11:42:37.531Z,74.90
2022-10-20T11:46:27.910Z,71.40
2022-10-20T11:50:12.125Z,72.50
2022-10-20T11:54:09.131Z,71.50
2022-10-20T11:58:09.982Z,72.10
2022-10-20T12:02:29.459Z,72.30
2022-10-20T12:06:38.552Z,74.40
2022-10-20T12:10:26.165Z,74.00
2022-10-20T12:14:14.026Z,71.60
2022-10-20T12:18:03.544Z,73.10
2022-10-20T12:22:00.847Z,71.00
2022-10-20T12:25:42.812Z,69.00
2022-10-20T12:29:30.503Z,67.60
2022-10-20T12:33:17.281Z,65.70
2022-10-20T12:37:08.610Z,66.20
2022-10-20T12:40:58.028Z,64.80
2022-10-20T12:44:43.089Z,63.00
2022-10-20T12:48:25.757Z,60.50
2022-10-20T12:52:16.656Z,60.30
2022-10-20T12:56:10.448Z,61.20
2022-10-20T12:59:52.744Z,59.70
2022-10-20T13:03:48.760Z,54.50
2022-10-20T13:07:49.258Z,54.10
2022-10-20T13:11:40.979Z,53.00
2022-10-20T13:15:26.373Z,49.40
2022-10-20T13:19:13.880Z,48.20
2022-10-20T13:22:57.113Z,48.90
2022-10-20T13:26:50.686Z,49.90
2022-10-20T13:30:34.675Z,52.10
2022-10-20T13:34:28.767Z,50.80
2022-10-20T13:38:21.560Z,51.90
2022-10-20T13:42:35.782Z,50.70
2022-10-20T13:46:36.279Z,52.90
2022-10-20T13:50:21.389Z,52.20
2022-10-20T13:54:06.311Z,54.90
2022-10-20T13:58:08.465Z,54.90
2022-10-20T14:01:59.837Z,56.50
2022-10-20T14:05:41.699Z,54.60
2022-10-20T14:09:25.514Z,56.00
2022-10-20T14:13:14.424Z,58.90
2022-10-20T14:17:01.983Z,58.80
2022-10-20T14:20:59.210Z,58.30
2022-10-20T14:24:44.842Z,57.30
2022-10-20T14:28:32.698Z,55.60
2022-10-20T14:32:19.869Z,57.10
2022-10-20T14:36:02.810Z,58.90
2022-10-20T14:39:50.137Z,56.90
2022-10-20T14:43:43.203Z,57.70
2022-10-20T14:47:29.414Z,58.20
2022-10-20T14:51:34.481Z,59.40
2022-10-20T14:55:32.696Z,59.90
2022-10-20T14:59:27.136Z,57.30
2022-10-20T15:03:11.303Z,55.20
2022-10-20T15:07:14.541Z,57.30
2022-10-20T15:10:57.571Z,59.30
2022-10-20T15:14:40.426Z,60.50
2022-10-20T15:18:24.060Z,61.80
2022-10-20T15:22:11.151Z,63.20
2022-10-20T15:25:58.726Z,64.70
2022-10-20T15:29:48.935Z,64.90
2022-10-20T15:33:30.760Z,66.40
2022-10-20T15:37:12.559Z,66.50
2022-10-20T15:40:54.399Z,66.30
2022-10-20T15:44:36.238Z,66.50
2022-10-20T15:48:18.768Z,67.30
2022-10-20T15:52:00.584Z,67.20
2022-10-20T15:55:43.175Z,67.10
2022-10-20T15:59:25.040Z,67.60
2022-10-20T16:03:07.413Z,65.60
2022-10-20T16:06:52.440Z,63.50
2022-10-20T16:10:34.910Z,63.90
2022-10-20T16:14:16.720Z,64.40
2022-10-20T16:17:58.981Z,66.10
2022-10-20T16:21:41.447Z,67.20
2022-10-20T16:25:23.346Z,69.20
2022-10-20T16:29:05.318Z,70.20
2022-10-20T16:32:47.110Z,70.50
2022-10-20T16:36:28.954Z,71.40
2022-10-20T16:40:11.260Z,71.80
2022-10-20T16:43:55.241Z,71.70
2022-10-20T16:47:39.941Z,72.40
2022-10-20T16:51:22.043Z,72.70
2022-10-20T16:55:04.113Z,72.80
2022-10-20T16:58:45.990Z,73.20
2022-10-20T17:02:27.867Z,73.20
2022-10-20T17:06:11.022Z,73.80
2022-10-20T17:09:53.044Z,73.80
2022-10-20T17:13:36.296Z,74.40
2022-10-20T17:17:18.237Z,74.60
2022-10-20T17:21:00.534Z,75.10
2022-10-20T17:24:42.380Z,75.60
2022-10-20T17:28:24.162Z,76.00
2022-10-20T17:32:06.256Z,76.00
2022-10-20T17:35:49.170Z,76.20
2022-10-20T17:39:31.042Z,76.30
2022-10-20T17:43:12.882Z,76.50
2022-10-20T17:46:54.690Z,77.00
2022-10-20T17:50:37.119Z,77.50
2022-10-20T17:54:20.377Z,77.60
2022-10-20T17:58:05.671Z,78.00
2022-10-20T18:01:47.902Z,78.10
2022-10-20T18:05:29.783Z,78.40
2022-10-20T18:09:16.868Z,78.60
2022-10-20T18:12:58.873Z,78.80
2022-10-20T18:16:41.137Z,79.00
2022-10-20T18:20:22.942Z,79.00
2022-10-20T18:24:08.264Z,79.40
2022-10-20T18:27:50.150Z,79.20
2022-10-20T18:31:33.458Z,79.30
2022-10-20T18:35:15.452Z,79.30
2022-10-20T18:38:57.318Z,79.60
2022-10-20T18:42:39.434Z,79.80
2022-10-20T18:46:21.824Z,80.20
2022-10-20T18:50:03.934Z,80.10
2022-10-20T18:53:46.593Z,80.70
2022-10-20T18:57:33.090Z,81.10
2022-10-20T19:01:17.687Z,81.70
2022-10-20T19:04:59.599Z,81.00
2022-10-20T19:08:41.524Z,81.40
2022-10-20T19:12:23.699Z,81.60
2022-10-20T19:16:15.688Z,81.60
2022-10-20T19:19:57.503Z,81.30
2022-10-20T19:23:43.003Z,81.50
2022-10-20T19:27:27.235Z,81.30
2022-10-20T19:31:21.231Z,81.90
2022-10-20T19:35:04.264Z,80.90
2022-10-20T19:38:46.461Z,81.30
2022-10-20T19:42:28.274Z,81.30
2022-10-20T19:46:13.683Z,81.60
2022-10-20T19:49:55.608Z,81.90
2022-10-20T19:53:38.334Z,81.90
2022-10-20T19:57:20.163Z,82.40
2022-10-20T20:01:02.957Z,82.70
2022-10-20T20:04:44.782Z,82.50
2022-10-20T20:08:27.044Z,82.70
2022-10-20T20:12:09.170Z,82.90
2022-10-20T20:15:52.447Z,82.70
2022-10-20T20:19:34.345Z,82.90
2022-10-20T20:23:20.068Z,82.80
2022-10-20T20:27:07.775Z,82.70
2022-10-20T20:31:01.060Z,82.80
2022-10-20T20:34:42.886Z,82.90
2022-10-20T20:38:24.739Z,82.50
2022-10-20T20:42:06.544Z,82.80
2022-10-20T20:45:48.431Z,82.90
2022-10-20T20:49:30.448Z,82.80
2022-10-20T20:53:12.396Z,83.00
2022-10-20T20:56:54.298Z,82.60
2022-10-20T21:00:36.134Z,82.90
2022-10-20T21:04:18.100Z,83.20
2022-10-20T21:07:59.902Z,84.00
2022-10-20T21:11:43.001Z,83.90
2022-10-20T21:15:24.836Z,83.70
2022-10-20T21:19:10.832Z,83.90
2022-10-20T21:22:52.659Z,84.00
2022-10-20T21:26:34.562Z,84.00
2022-10-20T21:30:16.463Z,84.10
2022-10-20T21:34:01.072Z,84.20
2022-10-20T21:37:42.896Z,84.40
2022-10-20T21:41:27.327Z,84.70
2022-10-20T21:45:09.476Z,85.00
2022-10-20T21:48:54.611Z,85.30
2022-10-20T21:52:39.215Z,85.50
2022-10-20T21:56:21.218Z,85.80
2022-10-20T22:00:04.304Z,85.90
2022-10-20T22:03:47.433Z,85.90
2022-10-20T22:07:29.382Z,86.10
2022-10-20T22:11:16.831Z,86.20
2022-10-20T22:14:58.676Z,86.50
2022-10-20T22:18:40.725Z,86.60
2022-10-20T22:22:22.534Z,86.60
2022-10-20T22:26:05.385Z,86.80
2022-10-20T22:29:47.299Z,86.70
2022-10-20T22:33:29.135Z,86.70
2022-10-20T22:37:10.953Z,86.70
2022-10-20T22:40:52.764Z,86.60
2022-10-20T22:44:34.559Z,86.70
2022-10-20T22:48:16.383Z,86.90
2022-10-20T22:51:58.211Z,87.10
2022-10-20T22:55:40.020Z,87.40
2022-10-20T22:59:21.870Z,87.80
2022-10-20T23:03:03.750Z,87.80
2022-10-20T23:06:45.613Z,87.90
2022-10-20T23:10:27.548Z,88.30
2022-10-20T23:14:09.362Z,89.90
2022-10-20T23:17:51.159Z,90.40
2022-10-20T23:21:33.246Z,90.70
2022-10-20T23:25:15.275Z,90.70
2022-10-20T23:28:57.074Z,91.00
2022-10-20T23:32:38.879Z,91.10
2022-10-20T23:36:21.131Z,91.20
2022-10-20T23:40:02.983Z,91.30
2022-10-20T23:43:44.922Z,91.30
2022-10-20T23:47:26.792Z,91.30
2022-10-20T23:51:08.990Z,91.30
2022-10-20T23:54:50.755Z,91.20
2022-10-20T23:58:32.635Z,91.20
